sensor_id;sensor_type;location;lat;lon;timestamp;temperature;humidity
18083;DHT22;9168;51.194;6.840;2023-03-14T00:01:31;11.50;99.90
18083;DHT22;9168;51.194;6.840;2023-03-14T00:03:58;11.60;99.90
18083;DHT22;9168;51.194;6.840;2023-03-14T00:06:26;11.60;99.90
18083;DHT22;9168;51.194;6.840;2023-03-14T00:08:53;11.60;99.90
18083;DHT22;9168;51.194;6.840;2023-03-14T00:11:21;11.50;99.90
18083;DHT22;9168;51.194;6.840;2023-03-14T00:13:49;11.50;99.90
18083;DHT22;9168;51.194;6.840;2023-03-14T00:16:16;11.60;99.90
18083;DHT22;9168;51.194;6.840;2023-03-14T00:18:45;11.60;99.90
18083;DHT22;9168;51.194;6.840;2023-03-14T00:21:12;11.60;99.90
18083;DHT22;9168;51.194;6.840;2023-03-14T00:23:41;11.60;99.90
18083;DHT22;9168;51.194;6.840;2023-03-14T00:26:09;11.60;99.90
18083;DHT22;9168;51.194;6.840;2023-03-14T00:28:37;11.50;99.90
18083;DHT22;9168;51.194;6.840;2023-03-14T00:31:04;11.60;99.90
18083;DHT22;9168;51.194;6.840;2023-03-14T00:33:32;11.60;99.90
18083;DHT22;9168;51.194;6.840;2023-03-14T00:36:02;11.60;99.90
18083;DHT22;9168;51.194;6.840;2023-03-14T00:38:30;11.60;99.90
18083;DHT22;9168;51.194;6.840;2023-03-14T00:40:58;11.70;99.90
18083;DHT22;9168;51.194;6.840;2023-03-14T00:43:25;11.70;99.90
18083;DHT22;9168;51.194;6.840;2023-03-14T00:45:52;11.60;99.90
18083;DHT22;9168;51.194;6.840;2023-03-14T00:48:20;11.50;99.90
18083;DHT22;9168;51.194;6.840;2023-03-14T00:50:47;11.30;99.90
18083;DHT22;9168;51.194;6.840;2023-03-14T00:53:16;11.20;99.90
18083;DHT22;9168;51.194;6.840;2023-03-14T00:55:44;11.00;99.90
18083;DHT22;9168;51.194;6.840;2023-03-14T00:58:13;10.90;99.90
18083;DHT22;9168;51.194;6.840;2023-03-14T01:00:40;10.70;99.90
18083;DHT22;9168;51.194;6.840;2023-03-14T01:03:09;10.60;99.90
18083;DHT22;9168;51.194;6.840;2023-03-14T01:05:36;10.50;99.90
18083;DHT22;9168;51.194;6.840;2023-03-14T01:08:05;10.30;99.90
18083;DHT22;9168;51.194;6.840;2023-03-14T01:10:34;10.30;99.90
18083;DHT22;9168;51.194;6.840;2023-03-14T01:13:01;10.10;99.90
18083;DHT22;9168;51.194;6.840;2023-03-14T01:15:27;10.00;99.90
18083;DHT22;9168;51.194;6.840;2023-03-14T01:17:54;10.00;99.90
18083;DHT22;9168;51.194;6.840;2023-03-14T01:20:21;9.90;99.90
18083;DHT22;9168;51.194;6.840;2023-03-14T01:22:48;9.90;99.90
18083;DHT22;9168;51.194;6.840;2023-03-14T01:25:16;9.90;99.90
18083;DHT22;9168;51.194;6.840;2023-03-14T01:27:44;9.90;99.90
18083;DHT22;9168;51.194;6.840;2023-03-14T01:30:12;9.80;99.90
18083;DHT22;9168;51.194;6.840;2023-03-14T01:32:39;9.80;99.90
18083;DHT22;9168;51.194;6.840;2023-03-14T01:35:07;9.70;99.90
18083;DHT22;9168;51.194;6.840;2023-03-14T01:37:34;9.70;99.90
18083;DHT22;9168;51.194;6.840;2023-03-14T01:40:01;9.70;99.90
18083;DHT22;9168;51.194;6.840;2023-03-14T01:42:31;9.70;99.90
18083;DHT22;9168;51.194;6.840;2023-03-14T01:45:00;9.70;99.90
18083;DHT22;9168;51.194;6.840;2023-03-14T01:47:27;9.80;99.90
18083;DHT22;9168;51.194;6.840;2023-03-14T01:49:58;9.80;99.90
18083;DHT22;9168;51.194;6.840;2023-03-14T01:52:29;9.80;99.90
18083;DHT22;9168;51.194;6.840;2023-03-14T01:55:02;9.80;99.90
18083;DHT22;9168;51.194;6.840;2023-03-14T01:57:33;9.80;99.90
18083;DHT22;9168;51.194;6.840;2023-03-14T02:00:07;9.90;99.90
18083;DHT22;9168;51.194;6.840;2023-03-14T02:02:38;9.90;99.90
18083;DHT22;9168;51.194;6.840;2023-03-14T02:05:06;9.90;99.90
18083;DHT22;9168;51.194;6.840;2023-03-14T02:07:37;9.90;99.90
18083;DHT22;9168;51.194;6.840;2023-03-14T02:10:07;9.90;99.90
18083;DHT22;9168;51.194;6.840;2023-03-14T02:12:36;10.00;99.90
18083;DHT22;9168;51.194;6.840;2023-03-14T02:15:06;10.00;99.90
18083;DHT22;9168;51.194;6.840;2023-03-14T02:17:34;10.00;99.90
18083;DHT22;9168;51.194;6.840;2023-03-14T02:20:18;10.00;99.90
18083;DHT22;9168;51.194;6.840;2023-03-14T02:22:50;10.10;99.90
18083;DHT22;9168;51.194;6.840;2023-03-14T02:25:22;10.10;99.90
18083;DHT22;9168;51.194;6.840;2023-03-14T02:27:53;10.10;99.90
18083;DHT22;9168;51.194;6.840;2023-03-14T02:30:22;10.10;99.90
18083;DHT22;9168;51.194;6.840;2023-03-14T02:32:52;10.10;99.90
18083;DHT22;9168;51.194;6.840;2023-03-14T02:35:23;10.10;99.90
18083;DHT22;9168;51.194;6.840;2023-03-14T02:37:53;10.10;99.90
18083;DHT22;9168;51.194;6.840;2023-03-14T02:40:21;10.10;99.90
18083;DHT22;9168;51.194;6.840;2023-03-14T02:42:48;10.10;99.90
18083;DHT22;9168;51.194;6.840;2023-03-14T02:45:38;10.10;99.90
18083;DHT22;9168;51.194;6.840;2023-03-14T02:48:09;10.20;99.90
18083;DHT22;9168;51.194;6.840;2023-03-14T02:50:37;10.10;99.90
18083;DHT22;9168;51.194;6.840;2023-03-14T02:53:05;10.10;99.90
18083;DHT22;9168;51.194;6.840;2023-03-14T02:55:31;10.10;99.90
18083;DHT22;9168;51.194;6.840;2023-03-14T02:57:58;10.10;99.90
18083;DHT22;9168;51.194;6.840;2023-03-14T03:00:25;10.10;99.90
18083;DHT22;9168;51.194;6.840;2023-03-14T03:02:53;10.20;99.90
18083;DHT22;9168;51.194;6.840;2023-03-14T03:05:20;10.20;99.90
18083;DHT22;9168;51.194;6.840;2023-03-14T03:07:47;10.20;99.90
18083;DHT22;9168;51.194;6.840;2023-03-14T03:10:14;10.20;99.90
18083;DHT22;9168;51.194;6.840;2023-03-14T03:12:41;10.20;99.90
18083;DHT22;9168;51.194;6.840;2023-03-14T03:15:10;10.20;99.90
18083;DHT22;9168;51.194;6.840;2023-03-14T03:17:37;10.20;99.90
18083;DHT22;9168;51.194;6.840;2023-03-14T03:20:06;10.20;99.90
18083;DHT22;9168;51.194;6.840;2023-03-14T03:22:34;10.20;99.90
18083;DHT22;9168;51.194;6.840;2023-03-14T03:25:01;10.20;99.90
18083;DHT22;9168;51.194;6.840;2023-03-14T03:27:29;10.20;99.90
18083;DHT22;9168;51.194;6.840;2023-03-14T03:29:56;10.20;99.90
18083;DHT22;9168;51.194;6.840;2023-03-14T03:32:24;10.20;99.90
18083;DHT22;9168;51.194;6.840;2023-03-14T03:34:51;10.10;99.90
18083;DHT22;9168;51.194;6.840;2023-03-14T03:37:19;10.10;99.90
18083;DHT22;9168;51.194;6.840;2023-03-14T03:39:46;10.00;99.90
18083;DHT22;9168;51.194;6.840;2023-03-14T03:42:13;9.90;99.90
18083;DHT22;9168;51.194;6.840;2023-03-14T03:44:39;9.90;99.90
18083;DHT22;9168;51.194;6.840;2023-03-14T03:47:06;9.80;99.90
18083;DHT22;9168;51.194;6.840;2023-03-14T03:49:33;9.70;99.90
18083;DHT22;9168;51.194;6.840;2023-03-14T03:52:00;9.70;99.90
18083;DHT22;9168;51.194;6.840;2023-03-14T03:54:29;9.70;99.90
18083;DHT22;9168;51.194;6.840;2023-03-14T03:56:56;9.70;99.90
18083;DHT22;9168;51.194;6.840;2023-03-14T03:59:22;9.60;99.90
18083;DHT22;9168;51.194;6.840;2023-03-14T04:01:49;9.70;99.90
18083;DHT22;9168;51.194;6.840;2023-03-14T04:04:16;9.70;99.90
18083;DHT22;9168;51.194;6.840;2023-03-14T04:06:43;9.60;99.90
18083;DHT22;9168;51.194;6.840;2023-03-14T04:09:10;9.60;99.90
18083;DHT22;9168;51.194;6.840;2023-03-14T04:11:39;9.60;99.90
18083;DHT22;9168;51.194;6.840;2023-03-14T04:14:06;9.60;99.90
18083;DHT22;9168;51.194;6.840;2023-03-14T04:16:33;9.60;99.90
18083;DHT22;9168;51.194;6.840;2023-03-14T04:19:01;9.60;99.90
18083;DHT22;9168;51.194;6.840;2023-03-14T04:21:28;9.60;99.90
18083;DHT22;9168;51.194;6.840;2023-03-14T04:23:54;9.60;99.90
18083;DHT22;9168;51.194;6.840;2023-03-14T04:26:21;9.70;99.90
18083;DHT22;9168;51.194;6.840;2023-03-14T04:28:50;9.60;99.90
18083;DHT22;9168;51.194;6.840;2023-03-14T04:31:18;9.60;99.90
18083;DHT22;9168;51.194;6.840;2023-03-14T04:33:45;9.60;99.90
18083;DHT22;9168;51.194;6.840;2023-03-14T04:36:12;9.60;99.90
18083;DHT22;9168;51.194;6.840;2023-03-14T04:38:40;9.60;99.90
18083;DHT22;9168;51.194;6.840;2023-03-14T04:41:07;9.60;99.90
18083;DHT22;9168;51.194;6.840;2023-03-14T04:43:34;9.50;99.90
18083;DHT22;9168;51.194;6.840;2023-03-14T04:46:02;9.50;99.90
18083;DHT22;9168;51.194;6.840;2023-03-14T04:48:29;9.60;99.90
18083;DHT22;9168;51.194;6.840;2023-03-14T04:50:56;9.60;99.90
18083;DHT22;9168;51.194;6.840;2023-03-14T04:53:23;9.60;99.90
18083;DHT22;9168;51.194;6.840;2023-03-14T04:55:51;9.60;99.90
18083;DHT22;9168;51.194;6.840;2023-03-14T04:58:18;9.50;99.90
18083;DHT22;9168;51.194;6.840;2023-03-14T05:00:45;9.60;99.90
18083;DHT22;9168;51.194;6.840;2023-03-14T05:03:14;9.60;99.90
18083;DHT22;9168;51.194;6.840;2023-03-14T05:05:41;9.60;99.90
18083;DHT22;9168;51.194;6.840;2023-03-14T05:08:08;9.60;99.90
18083;DHT22;9168;51.194;6.840;2023-03-14T05:10:36;9.60;99.90
18083;DHT22;9168;51.194;6.840;2023-03-14T05:13:03;9.60;99.90
18083;DHT22;9168;51.194;6.840;2023-03-14T05:15:30;9.60;99.90
18083;DHT22;9168;51.194;6.840;2023-03-14T05:17:57;9.60;99.90
18083;DHT22;9168;51.194;6.840;2023-03-14T05:20:25;9.60;99.90
18083;DHT22;9168;51.194;6.840;2023-03-14T05:22:52;9.60;99.90
18083;DHT22;9168;51.194;6.840;2023-03-14T05:25:19;9.60;99.90
18083;DHT22;9168;51.194;6.840;2023-03-14T05:27:46;9.60;99.90
18083;DHT22;9168;51.194;6.840;2023-03-14T05:30:13;9.60;99.90
18083;DHT22;9168;51.194;6.840;2023-03-14T05:32:40;9.60;99.90
18083;DHT22;9168;51.194;6.840;2023-03-14T05:35:07;9.60;99.90
18083;DHT22;9168;51.194;6.840;2023-03-14T05:37:36;9.60;99.90
18083;DHT22;9168;51.194;6.840;2023-03-14T05:40:04;9.70;99.90
18083;DHT22;9168;51.194;6.840;2023-03-14T05:42:31;9.70;99.90
18083;DHT22;9168;51.194;6.840;2023-03-14T05:44:58;9.70;99.90
18083;DHT22;9168;51.194;6.840;2023-03-14T05:47:25;9.70;99.90
18083;DHT22;9168;51.194;6.840;2023-03-14T05:49:52;9.70;99.90
18083;DHT22;9168;51.194;6.840;2023-03-14T05:52:19;9.70;99.90
18083;DHT22;9168;51.194;6.840;2023-03-14T05:54:47;9.70;99.90
18083;DHT22;9168;51.194;6.840;2023-03-14T05:57:14;9.70;99.90
18083;DHT22;9168;51.194;6.840;2023-03-14T05:59:41;9.70;99.90
18083;DHT22;9168;51.194;6.840;2023-03-14T06:02:08;9.70;99.90
18083;DHT22;9168;51.194;6.840;2023-03-14T06:04:35;9.70;99.90
18083;DHT22;9168;51.194;6.840;2023-03-14T06:07:02;9.70;99.90
18083;DHT22;9168;51.194;6.840;2023-03-14T06:09:28;9.70;99.90
18083;DHT22;9168;51.194;6.840;2023-03-14T06:11:57;9.70;99.90
18083;DHT22;9168;51.194;6.840;2023-03-14T06:14:23;9.80;99.90
18083;DHT22;9168;51.194;6.840;2023-03-14T06:16:50;9.70;99.90
18083;DHT22;9168;51.194;6.840;2023-03-14T06:19:18;9.80;99.90
18083;DHT22;9168;51.194;6.840;2023-03-14T06:21:45;9.80;99.90
18083;DHT22;9168;51.194;6.840;2023-03-14T06:24:12;9.80;99.90
18083;DHT22;9168;51.194;6.840;2023-03-14T06:26:38;9.80;99.90
18083;DHT22;9168;51.194;6.840;2023-03-14T06:29:07;9.90;99.90
18083;DHT22;9168;51.194;6.840;2023-03-14T06:31:34;9.90;99.90
18083;DHT22;9168;51.194;6.840;2023-03-14T06:34:01;9.90;99.90
18083;DHT22;9168;51.194;6.840;2023-03-14T06:36:28;9.90;99.90
18083;DHT22;9168;51.194;6.840;2023-03-14T06:38:55;10.00;99.90
18083;DHT22;9168;51.194;6.840;2023-03-14T06:41:24;10.00;99.90
18083;DHT22;9168;51.194;6.840;2023-03-14T06:43:53;10.00;99.90
18083;DHT22;9168;51.194;6.840;2023-03-14T06:46:21;10.00;99.90
18083;DHT22;9168;51.194;6.840;2023-03-14T06:48:48;10.00;99.90
18083;DHT22;9168;51.194;6.840;2023-03-14T06:51:15;10.00;99.90
18083;DHT22;9168;51.194;6.840;2023-03-14T06:53:42;10.10;99.90
18083;DHT22;9168;51.194;6.840;2023-03-14T06:56:09;10.10;99.90
18083;DHT22;9168;51.194;6.840;2023-03-14T06:58:36;10.10;99.90
18083;DHT22;9168;51.194;6.840;2023-03-14T07:01:03;10.20;99.90
18083;DHT22;9168;51.194;6.840;2023-03-14T07:03:31;10.20;99.90
18083;DHT22;9168;51.194;6.840;2023-03-14T07:05:58;10.10;99.90
18083;DHT22;9168;51.194;6.840;2023-03-14T07:08:25;10.20;99.90
18083;DHT22;9168;51.194;6.840;2023-03-14T07:10:52;10.20;99.90
18083;DHT22;9168;51.194;6.840;2023-03-14T07:13:22;10.20;99.90
18083;DHT22;9168;51.194;6.840;2023-03-14T07:15:48;10.20;99.90
18083;DHT22;9168;51.194;6.840;2023-03-14T07:18:15;10.20;99.90
18083;DHT22;9168;51.194;6.840;2023-03-14T07:20:44;10.20;99.90
18083;DHT22;9168;51.194;6.840;2023-03-14T07:23:11;10.30;99.90
18083;DHT22;9168;51.194;6.840;2023-03-14T07:25:38;10.20;99.90
18083;DHT22;9168;51.194;6.840;2023-03-14T07:28:05;10.30;99.90
18083;DHT22;9168;51.194;6.840;2023-03-14T07:30:32;10.30;99.90
18083;DHT22;9168;51.194;6.840;2023-03-14T07:32:59;10.30;99.90
18083;DHT22;9168;51.194;6.840;2023-03-14T07:35:26;10.30;99.90
18083;DHT22;9168;51.194;6.840;2023-03-14T07:37:54;10.40;99.90
18083;DHT22;9168;51.194;6.840;2023-03-14T07:40:21;10.40;99.90
18083;DHT22;9168;51.194;6.840;2023-03-14T07:42:47;10.40;99.90
18083;DHT22;9168;51.194;6.840;2023-03-14T07:45:15;10.40;99.90
18083;DHT22;9168;51.194;6.840;2023-03-14T07:47:41;10.50;99.90
18083;DHT22;9168;51.194;6.840;2023-03-14T07:50:10;10.50;99.90
18083;DHT22;9168;51.194;6.840;2023-03-14T07:52:36;10.60;99.90
18083;DHT22;9168;51.194;6.840;2023-03-14T07:55:06;10.60;99.90
18083;DHT22;9168;51.194;6.840;2023-03-14T07:57:33;10.60;99.90
18083;DHT22;9168;51.194;6.840;2023-03-14T08:00:00;10.50;99.90
18083;DHT22;9168;51.194;6.840;2023-03-14T08:02:26;10.60;99.90
18083;DHT22;9168;51.194;6.840;2023-03-14T08:04:53;10.60;99.90
18083;DHT22;9168;51.194;6.840;2023-03-14T08:07:20;10.60;99.90
18083;DHT22;9168;51.194;6.840;2023-03-14T08:09:47;10.70;99.90
18083;DHT22;9168;51.194;6.840;2023-03-14T08:12:15;10.70;99.90
18083;DHT22;9168;51.194;6.840;2023-03-14T08:14:42;10.80;99.90
18083;DHT22;9168;51.194;6.840;2023-03-14T08:17:09;10.80;99.90
18083;DHT22;9168;51.194;6.840;2023-03-14T08:19:36;10.90;99.90
18083;DHT22;9168;51.194;6.840;2023-03-14T08:22:03;10.90;99.90
18083;DHT22;9168;51.194;6.840;2023-03-14T08:24:31;11.00;99.90
18083;DHT22;9168;51.194;6.840;2023-03-14T08:26:58;11.00;99.90
18083;DHT22;9168;51.194;6.840;2023-03-14T08:29:26;11.00;99.90
18083;DHT22;9168;51.194;6.840;2023-03-14T08:31:53;11.00;99.90
18083;DHT22;9168;51.194;6.840;2023-03-14T08:34:20;11.00;99.90
18083;DHT22;9168;51.194;6.840;2023-03-14T08:36:47;11.00;99.90
18083;DHT22;9168;51.194;6.840;2023-03-14T08:39:14;10.90;99.90
18083;DHT22;9168;51.194;6.840;2023-03-14T08:41:41;10.90;99.90
18083;DHT22;9168;51.194;6.840;2023-03-14T08:44:10;10.90;99.90
18083;DHT22;9168;51.194;6.840;2023-03-14T08:46:39;10.80;99.90
18083;DHT22;9168;51.194;6.840;2023-03-14T08:49:06;10.90;99.90
18083;DHT22;9168;51.194;6.840;2023-03-14T08:51:33;10.90;99.90
18083;DHT22;9168;51.194;6.840;2023-03-14T08:54:00;10.90;99.90
18083;DHT22;9168;51.194;6.840;2023-03-14T08:56:26;10.90;99.90
18083;DHT22;9168;51.194;6.840;2023-03-14T08:58:53;10.90;99.90
18083;DHT22;9168;51.194;6.840;2023-03-14T09:01:20;10.90;99.90
18083;DHT22;9168;51.194;6.840;2023-03-14T09:03:50;10.80;99.90
18083;DHT22;9168;51.194;6.840;2023-03-14T09:06:17;10.70;99.90
18083;DHT22;9168;51.194;6.840;2023-03-14T09:08:44;10.70;99.90
18083;DHT22;9168;51.194;6.840;2023-03-14T09:11:12;10.70;99.90
18083;DHT22;9168;51.194;6.840;2023-03-14T09:13:39;10.60;99.90
18083;DHT22;9168;51.194;6.840;2023-03-14T09:16:07;10.60;99.90
18083;DHT22;9168;51.194;6.840;2023-03-14T09:18:35;10.60;99.90
18083;DHT22;9168;51.194;6.840;2023-03-14T09:21:03;10.60;99.90
18083;DHT22;9168;51.194;6.840;2023-03-14T09:23:30;10.60;99.90
18083;DHT22;9168;51.194;6.840;2023-03-14T09:25:58;10.60;99.90
18083;DHT22;9168;51.194;6.840;2023-03-14T09:28:26;10.50;99.90
18083;DHT22;9168;51.194;6.840;2023-03-14T09:30:53;10.40;99.90
18083;DHT22;9168;51.194;6.840;2023-03-14T09:33:20;10.20;99.90
18083;DHT22;9168;51.194;6.840;2023-03-14T09:35:47;10.10;99.90
18083;DHT22;9168;51.194;6.840;2023-03-14T09:38:15;10.00;99.90
18083;DHT22;9168;51.194;6.840;2023-03-14T09:40:42;9.90;99.90
18083;DHT22;9168;51.194;6.840;2023-03-14T09:43:11;9.70;99.90
18083;DHT22;9168;51.194;6.840;2023-03-14T09:45:40;9.60;99.90
18083;DHT22;9168;51.194;6.840;2023-03-14T09:48:14;9.50;99.90
18083;DHT22;9168;51.194;6.840;2023-03-14T09:50:44;9.50;99.90
18083;DHT22;9168;51.194;6.840;2023-03-14T09:53:14;9.50;99.90
18083;DHT22;9168;51.194;6.840;2023-03-14T09:55:45;9.50;99.90
18083;DHT22;9168;51.194;6.840;2023-03-14T09:58:15;9.40;99.90
18083;DHT22;9168;51.194;6.840;2023-03-14T10:00:43;9.30;99.90
18083;DHT22;9168;51.194;6.840;2023-03-14T10:03:29;9.30;99.90
18083;DHT22;9168;51.194;6.840;2023-03-14T10:05:58;9.30;99.90
18083;DHT22;9168;51.194;6.840;2023-03-14T10:08:25;9.30;99.90
18083;DHT22;9168;51.194;6.840;2023-03-14T10:10:53;9.30;99.90
18083;DHT22;9168;51.194;6.840;2023-03-14T10:13:21;9.30;99.90
18083;DHT22;9168;51.194;6.840;2023-03-14T10:15:53;9.30;99.90
18083;DHT22;9168;51.194;6.840;2023-03-14T10:18:22;9.30;99.90
18083;DHT22;9168;51.194;6.840;2023-03-14T10:21:00;9.30;99.90
18083;DHT22;9168;51.194;6.840;2023-03-14T10:23:29;9.20;99.90
18083;DHT22;9168;51.194;6.840;2023-03-14T10:26:07;9.20;99.90
18083;DHT22;9168;51.194;6.840;2023-03-14T10:28:38;9.10;99.90
18083;DHT22;9168;51.194;6.840;2023-03-14T10:31:06;9.20;99.90
18083;DHT22;9168;51.194;6.840;2023-03-14T10:33:34;9.10;99.90
18083;DHT22;9168;51.194;6.840;2023-03-14T10:36:03;9.10;99.90
18083;DHT22;9168;51.194;6.840;2023-03-14T10:38:33;9.10;99.90
18083;DHT22;9168;51.194;6.840;2023-03-14T10:41:01;9.00;99.90
18083;DHT22;9168;51.194;6.840;2023-03-14T10:43:32;9.00;99.90
18083;DHT22;9168;51.194;6.840;2023-03-14T10:46:05;8.90;99.90
18083;DHT22;9168;51.194;6.840;2023-03-14T10:48:34;8.90;99.90
18083;DHT22;9168;51.194;6.840;2023-03-14T10:51:06;8.90;99.90
18083;DHT22;9168;51.194;6.840;2023-03-14T10:53:40;8.90;99.90
18083;DHT22;9168;51.194;6.840;2023-03-14T10:56:09;8.80;99.90
18083;DHT22;9168;51.194;6.840;2023-03-14T10:58:41;8.80;99.90
18083;DHT22;9168;51.194;6.840;2023-03-14T11:01:28;8.90;99.90
18083;DHT22;9168;51.194;6.840;2023-03-14T11:04:03;8.90;99.90
18083;DHT22;9168;51.194;6.840;2023-03-14T11:06:38;8.90;99.90
18083;DHT22;9168;51.194;6.840;2023-03-14T11:09:14;8.80;99.90
18083;DHT22;9168;51.194;6.840;2023-03-14T11:11:47;8.80;99.90
18083;DHT22;9168;51.194;6.840;2023-03-14T11:14:23;8.70;99.90
18083;DHT22;9168;51.194;6.840;2023-03-14T11:16:56;8.80;99.90
18083;DHT22;9168;51.194;6.840;2023-03-14T11:19:50;8.80;99.90
18083;DHT22;9168;51.194;6.840;2023-03-14T11:22:28;8.80;99.90
18083;DHT22;9168;51.194;6.840;2023-03-14T11:25:12;8.80;99.90
18083;DHT22;9168;51.194;6.840;2023-03-14T11:27:43;8.80;99.90
18083;DHT22;9168;51.194;6.840;2023-03-14T11:30:19;8.70;99.90
18083;DHT22;9168;51.194;6.840;2023-03-14T11:32:53;8.60;99.90
18083;DHT22;9168;51.194;6.840;2023-03-14T11:35:26;8.60;99.90
18083;DHT22;9168;51.194;6.840;2023-03-14T11:37:57;8.60;99.90
18083;DHT22;9168;51.194;6.840;2023-03-14T11:40:27;8.60;99.90
18083;DHT22;9168;51.194;6.840;2023-03-14T11:43:00;8.60;99.90
18083;DHT22;9168;51.194;6.840;2023-03-14T11:45:32;8.60;99.90
18083;DHT22;9168;51.194;6.840;2023-03-14T11:48:14;8.60;99.90
18083;DHT22;9168;51.194;6.840;2023-03-14T11:50:43;8.70;99.90
18083;DHT22;9168;51.194;6.840;2023-03-14T11:53:14;8.70;99.90
18083;DHT22;9168;51.194;6.840;2023-03-14T11:55:43;8.80;99.90
18083;DHT22;9168;51.194;6.840;2023-03-14T11:58:15;8.90;99.90
18083;DHT22;9168;51.194;6.840;2023-03-14T12:00:46;8.90;99.90
18083;DHT22;9168;51.194;6.840;2023-03-14T12:03:17;8.80;99.90
18083;DHT22;9168;51.194;6.840;2023-03-14T12:05:53;8.80;99.90
18083;DHT22;9168;51.194;6.840;2023-03-14T12:08:47;8.80;99.90
18083;DHT22;9168;51.194;6.840;2023-03-14T12:11:24;8.90;99.90
18083;DHT22;9168;51.194;6.840;2023-03-14T12:13:53;8.90;99.90
18083;DHT22;9168;51.194;6.840;2023-03-14T12:16:43;8.80;99.90
18083;DHT22;9168;51.194;6.840;2023-03-14T12:19:29;8.80;99.90
18083;DHT22;9168;51.194;6.840;2023-03-14T12:22:13;8.70;99.90
18083;DHT22;9168;51.194;6.840;2023-03-14T12:24:49;8.70;99.90
18083;DHT22;9168;51.194;6.840;2023-03-14T12:27:43;8.60;99.90
18083;DHT22;9168;51.194;6.840;2023-03-14T12:30:24;8.80;99.90
18083;DHT22;9168;51.194;6.840;2023-03-14T12:33:29;9.00;99.90
18083;DHT22;9168;51.194;6.840;2023-03-14T12:36:04;9.30;99.90
18083;DHT22;9168;51.194;6.840;2023-03-14T12:38:51;9.60;99.90
18083;DHT22;9168;51.194;6.840;2023-03-14T12:41:22;9.90;99.90
18083;DHT22;9168;51.194;6.840;2023-03-14T12:43:50;10.00;99.90
18083;DHT22;9168;51.194;6.840;2023-03-14T12:46:22;10.10;99.90
18083;DHT22;9168;51.194;6.840;2023-03-14T12:48:55;10.20;99.90
18083;DHT22;9168;51.194;6.840;2023-03-14T12:51:29;10.20;99.90
18083;DHT22;9168;51.194;6.840;2023-03-14T12:57:10;10.10;99.90
18083;DHT22;9168;51.194;6.840;2023-03-14T12:59:46;10.30;99.90
18083;DHT22;9168;51.194;6.840;2023-03-14T13:02:25;10.50;99.90
18083;DHT22;9168;51.194;6.840;2023-03-14T13:05:02;10.60;99.90
18083;DHT22;9168;51.194;6.840;2023-03-14T13:07:33;10.50;99.90
18083;DHT22;9168;51.194;6.840;2023-03-14T13:10:03;10.30;99.90
18083;DHT22;9168;51.194;6.840;2023-03-14T13:12:38;10.10;99.90
18083;DHT22;9168;51.194;6.840;2023-03-14T13:15:17;9.90;99.90
18083;DHT22;9168;51.194;6.840;2023-03-14T13:17:46;9.60;99.90
18083;DHT22;9168;51.194;6.840;2023-03-14T13:20:20;9.60;99.90
18083;DHT22;9168;51.194;6.840;2023-03-14T13:22:49;9.60;99.90
18083;DHT22;9168;51.194;6.840;2023-03-14T13:25:17;9.60;99.90
18083;DHT22;9168;51.194;6.840;2023-03-14T13:27:47;9.60;99.90
18083;DHT22;9168;51.194;6.840;2023-03-14T13:30:17;9.60;99.90
18083;DHT22;9168;51.194;6.840;2023-03-14T13:32:47;9.50;99.90
18083;DHT22;9168;51.194;6.840;2023-03-14T13:35:18;9.50;99.90
18083;DHT22;9168;51.194;6.840;2023-03-14T13:37:45;9.50;99.90
18083;DHT22;9168;51.194;6.840;2023-03-14T13:40:23;9.50;99.90
18083;DHT22;9168;51.194;6.840;2023-03-14T13:43:00;9.80;99.90
18083;DHT22;9168;51.194;6.840;2023-03-14T13:45:28;10.10;99.90
18083;DHT22;9168;51.194;6.840;2023-03-14T13:47:55;10.50;99.90
18083;DHT22;9168;51.194;6.840;2023-03-14T13:50:23;10.70;99.90
18083;DHT22;9168;51.194;6.840;2023-03-14T13:52:55;10.60;99.90
18083;DHT22;9168;51.194;6.840;2023-03-14T13:55:23;10.40;99.90
18083;DHT22;9168;51.194;6.840;2023-03-14T13:57:51;10.10;99.90
18083;DHT22;9168;51.194;6.840;2023-03-14T14:00:22;9.80;99.90
18083;DHT22;9168;51.194;6.840;2023-03-14T14:02:52;9.60;99.90
18083;DHT22;9168;51.194;6.840;2023-03-14T14:05:20;9.30;99.90
18083;DHT22;9168;51.194;6.840;2023-03-14T14:07:49;9.20;99.90
18083;DHT22;9168;51.194;6.840;2023-03-14T14:10:16;9.20;99.90
18083;DHT22;9168;51.194;6.840;2023-03-14T14:12:46;9.30;99.90
18083;DHT22;9168;51.194;6.840;2023-03-14T14:15:20;9.40;99.90
18083;DHT22;9168;51.194;6.840;2023-03-14T14:17:50;9.60;99.90
18083;DHT22;9168;51.194;6.840;2023-03-14T14:20:24;9.70;99.90
18083;DHT22;9168;51.194;6.840;2023-03-14T14:23:00;9.70;99.90
18083;DHT22;9168;51.194;6.840;2023-03-14T14:25:28;9.80;99.90
18083;DHT22;9168;51.194;6.840;2023-03-14T14:27:55;9.80;99.90
18083;DHT22;9168;51.194;6.840;2023-03-14T14:30:29;9.80;99.90
18083;DHT22;9168;51.194;6.840;2023-03-14T14:33:12;9.80;99.90
18083;DHT22;9168;51.194;6.840;2023-03-14T14:35:51;9.70;99.90
18083;DHT22;9168;51.194;6.840;2023-03-14T14:38:20;9.80;99.90
18083;DHT22;9168;51.194;6.840;2023-03-14T14:40:49;9.80;99.90
18083;DHT22;9168;51.194;6.840;2023-03-14T14:43:21;9.90;99.90
18083;DHT22;9168;51.194;6.840;2023-03-14T14:45:50;9.80;99.90
18083;DHT22;9168;51.194;6.840;2023-03-14T14:48:20;9.90;99.90
18083;DHT22;9168;51.194;6.840;2023-03-14T14:50:56;9.80;99.90
18083;DHT22;9168;51.194;6.840;2023-03-14T14:53:28;9.80;99.90
18083;DHT22;9168;51.194;6.840;2023-03-14T14:55:57;9.80;99.90
18083;DHT22;9168;51.194;6.840;2023-03-14T14:58:27;9.80;99.90
18083;DHT22;9168;51.194;6.840;2023-03-14T15:00:57;9.80;99.90
18083;DHT22;9168;51.194;6.840;2023-03-14T15:03:27;9.70;99.90
18083;DHT22;9168;51.194;6.840;2023-03-14T15:05:55;9.80;99.90
18083;DHT22;9168;51.194;6.840;2023-03-14T15:08:25;9.80;99.90
18083;DHT22;9168;51.194;6.840;2023-03-14T15:10:53;9.60;99.90
18083;DHT22;9168;51.194;6.840;2023-03-14T15:13:20;9.70;99.90
18083;DHT22;9168;51.194;6.840;2023-03-14T15:15:47;9.60;99.90
18083;DHT22;9168;51.194;6.840;2023-03-14T15:18:16;9.60;99.90
18083;DHT22;9168;51.194;6.840;2023-03-14T15:20:43;9.70;99.90
18083;DHT22;9168;51.194;6.840;2023-03-14T15:23:12;9.70;99.90
18083;DHT22;9168;51.194;6.840;2023-03-14T15:25:40;9.80;99.90
18083;DHT22;9168;51.194;6.840;2023-03-14T15:28:14;9.90;99.90
18083;DHT22;9168;51.194;6.840;2023-03-14T15:30:42;10.00;99.90
18083;DHT22;9168;51.194;6.840;2023-03-14T15:33:09;10.00;99.90
18083;DHT22;9168;51.194;6.840;2023-03-14T15:35:36;10.10;99.90
18083;DHT22;9168;51.194;6.840;2023-03-14T15:38:04;10.10;99.90
18083;DHT22;9168;51.194;6.840;2023-03-14T15:40:31;10.10;99.90
18083;DHT22;9168;51.194;6.840;2023-03-14T15:42:59;10.00;99.90
18083;DHT22;9168;51.194;6.840;2023-03-14T15:45:26;9.80;99.90
18083;DHT22;9168;51.194;6.840;2023-03-14T15:47:53;9.70;99.90
18083;DHT22;9168;51.194;6.840;2023-03-14T15:50:20;9.70;99.90
18083;DHT22;9168;51.194;6.840;2023-03-14T15:52:47;9.50;99.90
18083;DHT22;9168;51.194;6.840;2023-03-14T15:55:14;9.30;99.90
18083;DHT22;9168;51.194;6.840;2023-03-14T15:57:41;9.20;99.90
18083;DHT22;9168;51.194;6.840;2023-03-14T16:00:12;9.10;99.90
18083;DHT22;9168;51.194;6.840;2023-03-14T16:02:41;9.10;99.90
18083;DHT22;9168;51.194;6.840;2023-03-14T16:05:09;9.00;99.90
18083;DHT22;9168;51.194;6.840;2023-03-14T16:07:36;9.00;99.90
18083;DHT22;9168;51.194;6.840;2023-03-14T16:10:04;9.00;99.90
18083;DHT22;9168;51.194;6.840;2023-03-14T16:12:31;9.00;99.90